createdAt,value
2022-08-05T00:02:57.235Z,90.70
2022-08-05T00:07:00.965Z,91.00
2022-08-05T00:11:30.317Z,91.10
2022-08-05T00:15:56.050Z,90.30
2022-08-05T00:20:02.472Z,88.00
2022-08-05T00:24:10.409Z,88.40
2022-08-05T00:28:14.004Z,87.60
2022-08-05T00:32:18.152Z,86.80
2022-08-05T00:37:12.516Z,87.20
2022-08-05T00:40:53.158Z,87.20
2022-08-05T00:44:56.217Z,86.50
2022-08-05T00:49:00.303Z,87.60
2022-08-05T00:53:03.103Z,88.60
2022-08-05T00:57:12.436Z,89.00
2022-08-05T01:01:16.215Z,89.00
2022-08-05T01:05:40.815Z,88.80
2022-08-05T01:09:44.717Z,88.40
2022-08-05T01:13:59.099Z,90.10
2022-08-05T01:18:06.049Z,91.40
2022-08-05T01:22:24.599Z,91.70
2022-08-05T01:26:49.529Z,92.90
2022-08-05T01:30:57.872Z,94.10
2022-08-05T01:35:02.959Z,93.60
2022-08-05T01:39:16.249Z,94.00
2022-08-05T01:43:39.444Z,94.50
2022-08-05T01:47:46.837Z,94.50
2022-08-05T01:51:52.543Z,94.70
2022-08-05T01:55:58.944Z,94.60
2022-08-05T02:00:12.125Z,94.70
2022-08-05T02:04:19.224Z,95.00
2022-08-05T02:08:29.755Z,95.50
2022-08-05T02:12:39.503Z,95.20
2022-08-05T02:16:47.270Z,95.00
2022-08-05T02:21:03.807Z,95.30
2022-08-05T02:25:13.621Z,94.80
2022-08-05T02:29:24.140Z,94.50
2022-08-05T02:33:38.411Z,94.60
2022-08-05T02:37:47.727Z,94.00
2022-08-05T02:42:01.493Z,93.80
2022-08-05T02:46:06.068Z,94.30
2022-08-05T02:50:10.450Z,94.40
2022-08-05T02:54:35.726Z,94.20
2022-08-05T02:58:43.755Z,94.70
2022-08-05T03:02:48.744Z,94.60
2022-08-05T03:06:55.218Z,94.70
2022-08-05T03:11:55.639Z,94.90
2022-08-05T03:15:25.875Z,95.10
2022-08-05T03:19:33.748Z,95.40
2022-08-05T03:23:39.321Z,95.80
2022-08-05T03:28:00.048Z,95.80
2022-08-05T03:32:04.751Z,95.90
2022-08-05T03:36:11.966Z,95.80
2022-08-05T03:40:24.246Z,95.90
2022-08-05T03:44:35.650Z,96.00
2022-08-05T03:48:38.457Z,96.20
2022-08-05T03:55:53.476Z,96.30
2022-08-05T03:57:34.172Z,96.30
2022-08-05T04:01:43.192Z,96.30
2022-08-05T04:05:49.735Z,96.40
2022-08-05T04:09:54.028Z,96.20
2022-08-05T04:14:00.444Z,96.20
2022-08-05T04:18:07.986Z,96.30
2022-08-05T04:22:13.037Z,96.30
2022-08-05T04:26:23.340Z,96.70
2022-08-05T04:30:26.367Z,96.90
2022-08-05T04:34:33.805Z,97.00
2022-08-05T04:38:39.561Z,96.80
2022-08-05T04:42:42.824Z,96.90
2022-08-05T04:46:49.219Z,96.20
2022-08-05T04:51:01.671Z,96.40
2022-08-05T04:55:15.073Z,96.30
2022-08-05T04:59:26.636Z,96.40
2022-08-05T05:03:42.137Z,96.60
2022-08-05T05:07:52.971Z,96.90
2022-08-05T05:12:02.815Z,97.70
2022-08-05T05:16:07.130Z,97.70
2022-08-05T05:20:11.328Z,98.30
2022-08-05T05:24:15.448Z,98.70
2022-08-05T05:28:21.122Z,98.90
2022-08-05T05:32:23.881Z,99.10
2022-08-05T05:36:29.801Z,99.00
2022-08-05T05:40:34.610Z,99.20
2022-08-05T05:44:42.931Z,99.30
2022-08-05T05:48:49.128Z,99.30
2022-08-05T05:52:52.047Z,99.10
2022-08-05T05:56:56.141Z,99.20
2022-08-05T06:01:12.196Z,99.10
2022-08-05T06:05:17.313Z,99.10
2022-08-05T06:09:26.641Z,99.40
2022-08-05T06:13:53.768Z,99.70
2022-08-05T06:17:58.165Z,99.80
2022-08-05T06:22:00.994Z,99.80
2022-08-05T06:26:20.845Z,99.60
2022-08-05T06:30:27.315Z,99.60
2022-08-05T06:34:30.837Z,99.80
2022-08-05T06:38:36.496Z,99.90
2022-08-05T06:42:40.349Z,99.60
2022-08-05T06:46:44.527Z,99.50
2022-08-05T06:50:47.858Z,99.30
2022-08-05T06:54:52.793Z,99.30
2022-08-05T06:58:56.515Z,99.40
2022-08-05T07:03:01.385Z,99.60
2022-08-05T07:07:07.897Z,99.90
2022-08-05T07:11:15.289Z,99.90
2022-08-05T07:16:01.074Z,99.90
2022-08-05T07:24:24.057Z,99.90
2022-08-05T07:28:31.751Z,99.90
2022-08-05T07:32:36.701Z,99.90
2022-08-05T07:36:40.976Z,99.90
2022-08-05T07:40:44.737Z,99.90
2022-08-05T07:44:48.804Z,99.90
2022-08-05T07:49:04.156Z,99.80
2022-08-05T07:53:10.473Z,99.40
2022-08-05T07:57:57.509Z,99.40
2022-08-05T08:01:51.590Z,99.30
2022-08-05T08:05:54.916Z,99.10
2022-08-05T08:10:00.975Z,99.20
2022-08-05T08:14:04.434Z,98.70
2022-08-05T08:18:13.697Z,98.00
2022-08-05T08:22:17.410Z,97.90
2022-08-05T08:26:29.819Z,98.40
2022-08-05T08:30:40.872Z,98.00
2022-08-05T08:34:50.699Z,97.40
2022-08-05T08:38:55.303Z,97.40
2022-08-05T08:45:20.893Z,97.10
2022-08-05T08:48:06.233Z,97.10
2022-08-05T08:52:03.647Z,97.30
2022-08-05T08:56:09.436Z,97.00
2022-08-05T09:00:15.639Z,97.30
2022-08-05T09:04:22.566Z,97.10
2022-08-05T09:08:33.800Z,96.90
2022-08-05T09:12:36.811Z,97.00
2022-08-05T09:16:41.539Z,97.30
2022-08-05T09:20:51.744Z,97.10
2022-08-05T09:25:02.009Z,97.10
2022-08-05T09:29:47.537Z,97.30
2022-08-05T09:33:54.268Z,97.50
2022-08-05T09:38:17.603Z,97.60
2022-08-05T09:42:24.219Z,98.00
2022-08-05T09:46:32.890Z,98.30
2022-08-05T09:50:44.410Z,98.70
2022-08-05T09:54:56.240Z,98.80
2022-08-05T09:59:01.120Z,98.90
2022-08-05T10:03:11.404Z,99.10
2022-08-05T10:07:31.878Z,99.40
2022-08-05T10:11:38.948Z,99.70
2022-08-05T10:15:43.890Z,99.90
2022-08-05T10:20:03.948Z,99.90
2022-08-05T10:24:15.125Z,99.90
2022-08-05T10:28:29.410Z,99.70
2022-08-05T10:32:52.809Z,99.90
2022-08-05T10:36:56.498Z,99.60
2022-08-05T10:41:07.378Z,99.50
2022-08-05T10:45:23.222Z,99.10
2022-08-05T10:49:33.210Z,99.30
2022-08-05T10:53:45.646Z,99.40
2022-08-05T10:57:51.331Z,99.20
2022-08-05T11:02:08.637Z,98.90
2022-08-05T11:06:18.041Z,98.40
2022-08-05T11:10:27.377Z,98.30
2022-08-05T11:15:01.506Z,97.60
2022-08-05T11:20:10.165Z,98.20
2022-08-05T11:24:05.020Z,97.20
2022-08-05T11:28:44.182Z,96.80
2022-08-05T11:32:48.389Z,97.30
2022-08-05T11:36:53.234Z,97.70
2022-08-05T11:41:03.542Z,98.20
2022-08-05T11:45:27.046Z,98.40
2022-08-05T11:49:50.919Z,98.30
2022-08-05T11:53:54.794Z,98.80
2022-08-05T13:27:37.364Z,90.30
2022-08-05T13:32:04.791Z,90.50
2022-08-05T13:36:05.365Z,90.30
2022-08-05T13:40:16.739Z,89.60
2022-08-05T13:44:31.670Z,88.50
2022-08-05T13:48:57.519Z,87.50
2022-08-05T13:53:00.259Z,86.70
2022-08-05T13:57:03.018Z,84.70
2022-08-05T14:01:10.415Z,85.70
2022-08-05T14:05:15.383Z,87.20
2022-08-05T14:09:22.314Z,87.40
2022-08-05T14:13:25.452Z,84.90
2022-08-05T14:20:17.515Z,83.00
2022-08-05T14:24:21.319Z,81.20
2022-08-05T14:28:26.840Z,78.60
2022-08-05T14:32:31.342Z,79.80
2022-08-05T14:36:35.581Z,79.10
2022-08-05T14:40:39.381Z,77.00
2022-08-05T14:44:42.271Z,73.60
2022-08-05T14:48:49.242Z,76.00
2022-08-05T14:52:57.818Z,75.50
2022-08-05T14:57:02.675Z,72.10
2022-08-05T15:01:15.564Z,74.10
2022-08-05T15:05:19.118Z,73.60
2022-08-05T15:09:52.428Z,73.90
2022-08-05T15:13:50.190Z,73.20
2022-08-05T15:17:53.305Z,74.00
2022-08-05T15:22:00.286Z,74.60
2022-08-05T15:26:05.170Z,75.60
2022-08-05T15:30:14.347Z,75.20
2022-08-05T15:34:33.058Z,73.30
2022-08-05T15:38:41.267Z,73.40
2022-08-05T15:42:55.903Z,71.20
2022-08-05T15:47:03.600Z,71.90
2022-08-05T15:51:06.769Z,71.10
2022-08-05T15:55:16.099Z,71.20
2022-08-05T15:59:22.147Z,70.60
2022-08-05T16:03:26.854Z,69.90
2022-08-05T16:07:29.829Z,68.30
2022-08-05T16:11:43.123Z,67.90
2022-08-05T16:15:47.709Z,66.90
2022-08-05T16:20:05.296Z,67.70
2022-08-05T16:24:41.393Z,67.90
2022-08-05T16:28:37.285Z,69.50
2022-08-05T16:32:45.561Z,69.40
2022-08-05T16:36:50.162Z,69.50
2022-08-05T16:41:00.259Z,69.30
2022-08-05T16:45:05.787Z,68.20
2022-08-05T16:49:12.233Z,66.70
2022-08-05T16:53:22.541Z,66.50
2022-08-05T16:57:52.890Z,67.10
2022-08-05T17:01:54.758Z,68.00
2022-08-05T17:06:01.044Z,68.10
2022-08-05T17:10:04.083Z,69.00
2022-08-05T17:14:06.877Z,68.00
2022-08-05T17:18:16.171Z,68.90
2022-08-05T17:22:25.555Z,68.00
2022-08-05T17:26:28.768Z,68.00
2022-08-05T17:30:31.887Z,68.50
2022-08-05T17:34:34.990Z,69.10
2022-08-05T17:38:39.704Z,69.30
2022-08-05T17:42:51.370Z,69.80
2022-08-05T17:46:55.802Z,69.50
2022-08-05T17:50:58.592Z,68.10
2022-08-05T17:55:03.231Z,67.00
2022-08-05T17:59:07.026Z,65.90
2022-08-05T18:03:11.286Z,65.90
2022-08-05T18:07:14.035Z,64.20
2022-08-05T18:11:24.496Z,62.40
2022-08-05T18:15:36.196Z,60.30
2022-08-05T18:19:41.706Z,59.40
2022-08-05T18:23:54.417Z,58.90
2022-08-05T18:27:58.704Z,57.90
2022-08-05T18:32:04.855Z,58.00
2022-08-05T18:36:11.900Z,58.40
2022-08-05T18:40:34.592Z,58.20
2022-08-05T18:44:49.345Z,59.20
2022-08-05T18:49:18.574Z,59.40
2022-08-05T18:53:22.983Z,59.00
2022-08-05T18:57:28.053Z,58.80
2022-08-05T19:01:56.969Z,58.90
2022-08-05T19:06:11.176Z,59.20
2022-08-05T19:10:28.152Z,59.30
2022-08-05T19:14:37.808Z,59.90
2022-08-05T19:18:56.833Z,59.80
2022-08-05T19:23:00.071Z,60.30
2022-08-05T19:27:04.174Z,60.40
2022-08-05T19:31:07.165Z,60.30
2022-08-05T19:35:11.858Z,61.00
2022-08-05T19:39:18.428Z,61.70
2022-08-05T19:44:05.771Z,61.70
2022-08-05T19:47:47.596Z,61.80
2022-08-05T19:52:08.948Z,61.80
2022-08-05T19:56:29.878Z,62.20
2022-08-05T20:00:35.814Z,62.40
2022-08-05T20:04:43.095Z,64.00
2022-08-05T20:08:52.204Z,64.80
2022-08-05T20:12:56.379Z,66.00
2022-08-05T20:17:01.621Z,66.70
2022-08-05T20:21:06.581Z,66.70
2022-08-05T20:25:11.592Z,66.90
2022-08-05T20:29:27.436Z,67.90
2022-08-05T20:33:30.994Z,69.00
2022-08-05T20:38:06.507Z,70.10
2022-08-05T20:42:00.343Z,71.50
2022-08-05T20:46:03.259Z,71.90
2022-08-05T20:50:07.467Z,72.40
2022-08-05T20:54:14.198Z,73.70
2022-08-05T20:58:18.793Z,74.60
2022-08-05T21:02:26.877Z,76.10
2022-08-05T21:06:30.383Z,76.50
2022-08-05T21:10:33.524Z,77.20
2022-08-05T21:14:37.727Z,77.50
2022-08-05T21:18:44.973Z,78.40
2022-08-05T21:22:48.047Z,79.60
2022-08-05T21:26:57.959Z,79.20
2022-08-05T21:31:03.023Z,79.60
2022-08-05T21:35:18.406Z,80.20
2022-08-05T21:39:29.954Z,81.50
2022-08-05T21:43:41.545Z,81.90
2022-08-05T21:47:56.745Z,83.30
2022-08-05T21:52:27.402Z,83.10
2022-08-05T21:56:23.384Z,84.20
2022-08-05T22:00:29.030Z,84.50
2022-08-05T22:04:33.213Z,84.20
2022-08-05T22:08:36.128Z,85.10
2022-08-05T22:12:50.576Z,86.20
2022-08-05T22:16:56.974Z,86.50
2022-08-05T22:21:04.831Z,87.60
2022-08-05T22:26:10.334Z,87.50
2022-08-05T22:30:02.706Z,87.70
2022-08-05T22:34:07.089Z,88.00
2022-08-05T22:38:12.636Z,88.40
2022-08-05T22:42:25.259Z,88.80
2022-08-05T22:46:28.364Z,89.20
2022-08-05T22:50:32.843Z,89.80
2022-08-05T22:54:40.398Z,90.10
2022-08-05T22:58:51.796Z,90.40
2022-08-05T23:02:58.264Z,90.10
2022-08-05T23:07:01.243Z,90.30
2022-08-05T23:11:06.009Z,90.40
2022-08-05T23:15:12.221Z,90.40
2022-08-05T23:19:25.769Z,90.90
2022-08-05T23:23:30.005Z,90.90
2022-08-05T23:27:42.439Z,91.00
2022-08-05T23:32:00.833Z,90.90
2022-08-05T23:36:03.822Z,90.50
2022-08-05T23:40:10.853Z,90.30
2022-08-05T23:44:16.557Z,90.30
2022-08-05T23:48:22.411Z,90.10
2022-08-05T23:52:30.815Z,89.80
2022-08-05T23:56:36.107Z,90.20
